Station History

Weather Underground - logo

Station Historical Data
Daily Summary for January 19, 2018 Units:  Both    English   Metric
« Previous Day
Next Day »
Daily Weekly Monthly Yearly Custom
  High: Low: Average:
Temperature: 53.1 °F /  11.7 °C 40.6 °F /  4.8 °C 49 °F /  9.4 °C
Dew Point: 49.9 °F /  9.9 °C 39.3 °F /  4.1 °C 46.7 °F /  8.2 °C
Humidity: 97 % 80 % 92 %
Wind Speed: 8.1 mph /  13 km/h - 1.5 mph /  2.4 km/h
Wind Gust: 8.1 mph /  13 km/h - -
Wind:- - WNW
Pressure: 30.12 in /  1019.9 hPa 30.01 in /  1016.1 hPa -
Precipitation: 0.17 in /  4.32 mm    
Historical Graphs
 
 
Tabular Data for January 19, 2018
Time Temperature Dew Point Pressure Wind Wind Speed Wind Gust Humidity Rainfall Rate (Hourly)
00:04 47.6 °F /  8.7 °C 46.5 °F /  8.1 °C 30.04 in /  1017.2 hPa Calm     96 % 0.00 in /  0 mm
00:09 47.8 °F /  8.8 °C 46.7 °F /  8.2 °C 30.04 in /  1017.2 hPa Calm     96 % 0.00 in /  0 mm
00:14 47.9 °F /  8.8 °C 46.8 °F /  8.2 °C 30.04 in /  1017.2 hPa Calm     96 % 0.00 in /  0 mm
00:19 48.1 °F /  8.9 °C 47.0 °F /  8.3 °C 30.04 in /  1017.2 hPa Calm     96 % 0.00 in /  0 mm
00:24 48.3 °F /  9.1 °C 47.2 °F /  8.4 °C 30.04 in /  1017.2 hPa Calm     96 % 0.00 in /  0 mm
00:29 48.5 °F /  9.2 °C 47.4 °F /  8.6 °C 30.04 in /  1017.2 hPa Calm     96 % 0.00 in /  0 mm
00:34 48.5 °F /  9.2 °C 47.4 °F /  8.6 °C 30.04 in /  1017.2 hPa ESE 2.3 mph /  3.7 km/h 2.3 mph /  3.7 km/h 96 % 0.00 in /  0 mm
00:39 48.5 °F /  9.2 °C 47.4 °F /  8.6 °C 30.05 in /  1017.5 hPa Calm     96 % 0.00 in /  0 mm
00:44 48.7 °F /  9.3 °C 47.6 °F /  8.7 °C 30.05 in /  1017.5 hPa Calm     96 % 0.00 in /  0 mm
00:49 48.7 °F /  9.3 °C 47.6 °F /  8.7 °C 30.05 in /  1017.5 hPa Calm     96 % 0.00 in /  0 mm
00:55 48.7 °F /  9.3 °C 47.6 °F /  8.7 °C 30.05 in /  1017.5 hPa Calm     96 % 0.00 in /  0 mm
01:00 48.8 °F /  9.3 °C 47.7 °F /  8.7 °C 30.05 in /  1017.5 hPa Calm     96 % 0.00 in /  0 mm
01:05 48.8 °F /  9.3 °C 47.7 °F /  8.7 °C 30.05 in /  1017.5 hPa Calm     96 % 0.00 in /  0 mm
01:10 48.9 °F /  9.4 °C 47.8 °F /  8.8 °C 30.05 in /  1017.5 hPa Calm     96 % 0.00 in /  0 mm
01:15 49.0 °F /  9.4 °C 48.2 °F /  9 °C 30.06 in /  1017.8 hPa ESE 1.2 mph /  1.9 km/h 1.2 mph /  1.9 km/h 97 % 0.00 in /  0 mm
01:20 49.0 °F /  9.4 °C 47.9 °F /  8.8 °C 30.05 in /  1017.5 hPa Calm     96 % 0.00 in /  0 mm
01:25 49.0 °F /  9.4 °C 47.9 °F /  8.8 °C 30.05 in /  1017.5 hPa Calm     96 % 0.00 in /  0 mm
01:30 49.0 °F /  9.4 °C 48.2 °F /  9 °C 30.05 in /  1017.5 hPa Calm     97 % 0.00 in /  0 mm
01:35 49.1 °F /  9.5 °C 48.3 °F /  9.1 °C 30.05 in /  1017.5 hPa Calm     97 % 0.00 in /  0 mm
01:40 49.2 °F /  9.6 °C 48.4 °F /  9.1 °C 30.05 in /  1017.5 hPa Calm     97 % 0.00 in /  0 mm
01:45 49.3 °F /  9.6 °C 48.5 °F /  9.2 °C 30.06 in /  1017.8 hPa West 1.2 mph /  1.9 km/h 1.2 mph /  1.9 km/h 97 % 0.00 in /  0 mm
01:50 49.4 °F /  9.7 °C 48.6 °F /  9.2 °C 30.06 in /  1017.8 hPa Calm     97 % 0.00 in /  0 mm
01:55 49.4 °F /  9.7 °C 48.6 °F /  9.2 °C 30.06 in /  1017.8 hPa NW 1.2 mph /  1.9 km/h 1.2 mph /  1.9 km/h 97 % 0.00 in /  0 mm
02:00 49.3 °F /  9.6 °C 48.5 °F /  9.2 °C 30.06 in /  1017.8 hPa WNW 2.3 mph /  3.7 km/h 2.3 mph /  3.7 km/h 97 % 0.00 in /  0 mm
02:05 49.3 °F /  9.6 °C 48.5 °F /  9.2 °C 30.06 in /  1017.8 hPa NW 2.3 mph /  3.7 km/h 2.3 mph /  3.7 km/h 97 % 0.00 in /  0 mm
02:10 49.3 °F /  9.6 °C 48.5 °F /  9.2 °C 30.07 in /  1018.2 hPa NW 1.2 mph /  1.9 km/h 1.2 mph /  1.9 km/h 97 % 0.00 in /  0 mm
02:15 49.3 °F /  9.6 °C 48.5 °F /  9.2 °C 30.07 in /  1018.2 hPa Calm     97 % 0.00 in /  0 mm
02:20 49.3 °F /  9.6 °C 48.5 °F /  9.2 °C 30.07 in /  1018.2 hPa NW 1.2 mph /  1.9 km/h 1.2 mph /  1.9 km/h 97 % 0.00 in /  0 mm
02:25 49.4 °F /  9.7 °C 48.6 °F /  9.2 °C 30.07 in /  1018.2 hPa NW 1.2 mph /  1.9 km/h 1.2 mph /  1.9 km/h 97 % 0.00 in /  0 mm
02:30 49.5 °F /  9.7 °C 48.7 °F /  9.3 °C 30.07 in /  1018.2 hPa Calm     97 % 0.00 in /  0 mm
02:35 49.5 °F /  9.7 °C 48.7 °F /  9.3 °C 30.07 in /  1018.2 hPa Calm     97 % 0.00 in /  0 mm
02:40 49.7 °F /  9.8 °C 48.9 °F /  9.4 °C 30.07 in /  1018.2 hPa Calm     97 % 0.00 in /  0 mm
02:45 49.7 °F /  9.8 °C 48.9 °F /  9.4 °C 30.07 in /  1018.2 hPa Calm   0.2 mph /  0.3 km/h 97 % 0.00 in /  0 mm
02:50 49.9 °F /  9.9 °C 49.1 °F /  9.5 °C 30.07 in /  1018.2 hPa Calm     97 % 0.00 in /  0 mm
02:55 49.9 °F /  9.9 °C 49.1 °F /  9.5 °C 30.07 in /  1018.2 hPa NW 1.2 mph /  1.9 km/h 1.2 mph /  1.9 km/h 97 % 0.00 in /  0 mm
03:00 49.8 °F /  9.9 °C 49.0 °F /  9.4 °C 30.07 in /  1018.2 hPa Calm     97 % 0.00 in /  0 mm
03:05 49.9 °F /  9.9 °C 49.1 °F /  9.5 °C 30.07 in /  1018.2 hPa Calm     97 % 0.00 in /  0 mm
03:10 50.0 °F /  10 °C 49.2 °F /  9.6 °C 30.06 in /  1017.8 hPa Calm     97 % 0.00 in /  0 mm
03:15 50.0 °F /  10 °C 49.2 °F /  9.6 °C 30.07 in /  1018.2 hPa Calm     97 % 0.00 in /  0 mm
03:20 50.1 °F /  10.1 °C 49.3 °F /  9.6 °C 30.06 in /  1017.8 hPa Calm     97 % 0.00 in /  0 mm
03:25 50.1 °F /  10.1 °C 49.3 °F /  9.6 °C 30.06 in /  1017.8 hPa Calm     97 % 0.00 in /  0 mm
03:30 50.1 °F /  10.1 °C 49.3 °F /  9.6 °C 30.06 in /  1017.8 hPa Calm     97 % 0.01 in /  0.25 mm
03:35 50.3 °F /  10.2 °C 49.5 °F /  9.7 °C 30.06 in /  1017.8 hPa Calm     97 % 0.01 in /  0.25 mm
03:40 50.3 °F /  10.2 °C 49.5 °F /  9.7 °C 30.06 in /  1017.8 hPa Calm   0.1 mph /  0.2 km/h 97 % 0.01 in /  0.25 mm
03:45 50.3 °F /  10.2 °C 49.5 °F /  9.7 °C 30.06 in /  1017.8 hPa NW 1.2 mph /  1.9 km/h 1.2 mph /  1.9 km/h 97 % 0.01 in /  0.25 mm
03:50 50.4 °F /  10.2 °C 49.6 °F /  9.8 °C 30.06 in /  1017.8 hPa WNW 1.2 mph /  1.9 km/h 1.2 mph /  1.9 km/h 97 % 0.02 in /  0.51 mm
03:55 50.6 °F /  10.3 °C 49.8 °F /  9.9 °C 30.06 in /  1017.8 hPa WNW 3.0 mph /  4.8 km/h 3.0 mph /  4.8 km/h 97 % 0.02 in /  0.51 mm
04:00 50.7 °F /  10.4 °C 49.9 °F /  9.9 °C 30.06 in /  1017.8 hPa NW 3.5 mph /  5.6 km/h 3.5 mph /  5.6 km/h 97 % 0.02 in /  0.51 mm
04:05 50.7 °F /  10.4 °C 49.9 °F /  9.9 °C 30.06 in /  1017.8 hPa NW 3.5 mph /  5.6 km/h 3.5 mph /  5.6 km/h 97 % 0.02 in /  0.51 mm
04:10 50.6 °F /  10.3 °C 49.8 °F /  9.9 °C 30.06 in /  1017.8 hPa NW 2.3 mph /  3.7 km/h 2.3 mph /  3.7 km/h 97 % 0.02 in /  0.51 mm
04:15 50.5 °F /  10.3 °C 49.7 °F /  9.8 °C 30.06 in /  1017.8 hPa NW 3.5 mph /  5.6 km/h 3.5 mph /  5.6 km/h 97 % 0.03 in /  0.76 mm
04:20 50.4 °F /  10.2 °C 49.6 °F /  9.8 °C 30.06 in /  1017.8 hPa North 5.0 mph /  8 km/h 5.0 mph /  8 km/h 97 % 0.03 in /  0.76 mm
04:26 50.4 °F /  10.2 °C 49.6 °F /  9.8 °C 30.06 in /  1017.8 hPa NW 4.6 mph /  7.4 km/h 4.6 mph /  7.4 km/h 97 % 0.04 in /  1.02 mm
04:31 50.2 °F /  10.1 °C 49.1 °F /  9.5 °C 30.07 in /  1018.2 hPa NW 3.5 mph /  5.6 km/h 3.5 mph /  5.6 km/h 96 % 0.04 in /  1.02 mm
04:36 50.1 °F /  10.1 °C 49.0 °F /  9.4 °C 30.07 in /  1018.2 hPa NW 6.0 mph /  9.7 km/h 6.0 mph /  9.7 km/h 96 % 0.04 in /  1.02 mm
04:41 49.8 °F /  9.9 °C 48.7 °F /  9.3 °C 30.07 in /  1018.2 hPa NNW 3.5 mph /  5.6 km/h 3.5 mph /  5.6 km/h 96 % 0.05 in /  1.27 mm
04:46 49.7 °F /  9.8 °C 48.6 °F /  9.2 °C 30.06 in /  1017.8 hPa NNW 4.6 mph /  7.4 km/h 4.6 mph /  7.4 km/h 96 % 0.06 in /  1.52 mm
04:51 49.6 °F /  9.8 °C 48.5 °F /  9.2 °C 30.07 in /  1018.2 hPa WNW 4.0 mph /  6.4 km/h 4.0 mph /  6.4 km/h 96 % 0.06 in /  1.52 mm
04:56 49.5 °F /  9.7 °C 48.4 °F /  9.1 °C 30.07 in /  1018.2 hPa NW 4.6 mph /  7.4 km/h 4.6 mph /  7.4 km/h 96 % 0.06 in /  1.52 mm
05:01 49.5 °F /  9.7 °C 48.4 °F /  9.1 °C 30.07 in /  1018.2 hPa NW 6.9 mph /  11.1 km/h 6.9 mph /  11.1 km/h 96 % 0.06 in /  1.52 mm
05:06 49.3 °F /  9.6 °C 47.9 °F /  8.8 °C 30.07 in /  1018.2 hPa NW 5.0 mph /  8 km/h 5.0 mph /  8 km/h 95 % 0.06 in /  1.52 mm
05:11 49.1 °F /  9.5 °C 47.7 °F /  8.7 °C 30.06 in /  1017.8 hPa NW 6.9 mph /  11.1 km/h 6.9 mph /  11.1 km/h 95 % 0.07 in /  1.78 mm
05:16 49.0 °F /  9.4 °C 47.6 °F /  8.7 °C 30.06 in /  1017.8 hPa NW 8.1 mph /  13 km/h 8.1 mph /  13 km/h 95 % 0.06 in /  1.52 mm
05:21 49.0 °F /  9.4 °C 47.6 °F /  8.7 °C 30.07 in /  1018.2 hPa NW 8.1 mph /  13 km/h 8.1 mph /  13 km/h 95 % 0.06 in /  1.52 mm
05:26 48.9 °F /  9.4 °C 47.5 °F /  8.6 °C 30.07 in /  1018.2 hPa NW 4.6 mph /  7.4 km/h 4.6 mph /  7.4 km/h 95 % 0.05 in /  1.27 mm
05:31 48.9 °F /  9.4 °C 47.5 °F /  8.6 °C 30.07 in /  1018.2 hPa NNW 6.9 mph /  11.1 km/h 6.9 mph /  11.1 km/h 95 % 0.04 in /  1.02 mm
05:36 48.9 °F /  9.4 °C 47.5 °F /  8.6 °C 30.06 in /  1017.8 hPa NW 5.8 mph /  9.3 km/h 5.8 mph /  9.3 km/h 95 % 0.04 in /  1.02 mm
05:41 49.0 °F /  9.4 °C 47.6 °F /  8.7 °C 30.06 in /  1017.8 hPa NW 3.5 mph /  5.6 km/h 3.5 mph /  5.6 km/h 95 % 0.05 in /  1.27 mm
05:46 49.1 °F /  9.5 °C 47.7 °F /  8.7 °C 30.06 in /  1017.8 hPa WNW 3.5 mph /  5.6 km/h 3.5 mph /  5.6 km/h 95 % 0.04 in /  1.02 mm
05:51 49.1 °F /  9.5 °C 47.7 °F /  8.7 °C 30.06 in /  1017.8 hPa WNW 8.1 mph /  13 km/h 8.1 mph /  13 km/h 95 % 0.03 in /  0.76 mm
05:56 49.2 °F /  9.6 °C 47.8 °F /  8.8 °C 30.06 in /  1017.8 hPa NW 3.5 mph /  5.6 km/h 3.5 mph /  5.6 km/h 95 % 0.03 in /  0.76 mm
06:01 49.2 °F /  9.6 °C 47.8 °F /  8.8 °C 30.07 in /  1018.2 hPa NW 4.6 mph /  7.4 km/h 4.6 mph /  7.4 km/h 95 % 0.03 in /  0.76 mm
06:06 49.3 °F /  9.6 °C 47.9 °F /  8.8 °C 30.07 in /  1018.2 hPa NW 1.2 mph /  1.9 km/h 1.2 mph /  1.9 km/h 95 % 0.03 in /  0.76 mm
06:11 49.3 °F /  9.6 °C 47.9 °F /  8.8 °C 30.07 in /  1018.2 hPa NW 3.0 mph /  4.8 km/h 3.0 mph /  4.8 km/h 95 % 0.02 in /  0.51 mm
06:16 49.3 °F /  9.6 °C 47.9 °F /  8.8 °C 30.07 in /  1018.2 hPa NW 2.3 mph /  3.7 km/h 2.3 mph /  3.7 km/h 95 % 0.03 in /  0.76 mm
06:21 49.2 °F /  9.6 °C 47.8 °F /  8.8 °C 30.07 in /  1018.2 hPa NW 2.3 mph /  3.7 km/h 2.3 mph /  3.7 km/h 95 % 0.03 in /  0.76 mm
06:26 49.2 °F /  9.6 °C 47.8 °F /  8.8 °C 30.07 in /  1018.2 hPa WNW 2.3 mph /  3.7 km/h 2.3 mph /  3.7 km/h 95 % 0.03 in /  0.76 mm
06:31 49.2 °F /  9.6 °C 47.8 °F /  8.8 °C 30.07 in /  1018.2 hPa WNW 2.3 mph /  3.7 km/h 2.3 mph /  3.7 km/h 95 % 0.03 in /  0.76 mm
06:36 49.2 °F /  9.6 °C 47.8 °F /  8.8 °C 30.07 in /  1018.2 hPa NW 2.3 mph /  3.7 km/h 2.3 mph /  3.7 km/h 95 % 0.03 in /  0.76 mm
06:41 49.2 °F /  9.6 °C 47.8 °F /  8.8 °C 30.07 in /  1018.2 hPa West 1.2 mph /  1.9 km/h 1.2 mph /  1.9 km/h 95 % 0.01 in /  0.25 mm
06:46 49.2 °F /  9.6 °C 47.8 °F /  8.8 °C 30.07 in /  1018.2 hPa NNW 1.2 mph /  1.9 km/h 1.2 mph /  1.9 km/h 95 % 0.01 in /  0.25 mm
06:51 49.2 °F /  9.6 °C 47.8 °F /  8.8 °C 30.07 in /  1018.2 hPa NNE 1.2 mph /  1.9 km/h 1.2 mph /  1.9 km/h 95 % 0.01 in /  0.25 mm
06:56 49.2 °F /  9.6 °C 47.8 °F /  8.8 °C 30.07 in /  1018.2 hPa NW 3.5 mph /  5.6 km/h 3.5 mph /  5.6 km/h 95 % 0.01 in /  0.25 mm
07:01 49.3 °F /  9.6 °C 47.9 °F /  8.8 °C 30.07 in /  1018.2 hPa NW 1.2 mph /  1.9 km/h 1.2 mph /  1.9 km/h 95 % 0.01 in /  0.25 mm
07:06 49.3 °F /  9.6 °C 47.9 °F /  8.8 °C 30.07 in /  1018.2 hPa Calm   0.3 mph /  0.5 km/h 95 % 0.01 in /  0.25 mm
07:11 49.3 °F /  9.6 °C 47.9 °F /  8.8 °C 30.07 in /  1018.2 hPa NW 1.2 mph /  1.9 km/h 1.2 mph /  1.9 km/h 95 % 0.01 in /  0.25 mm
07:16 49.3 °F /  9.6 °C 47.9 °F /  8.8 °C 30.08 in /  1018.5 hPa NW 1.2 mph /  1.9 km/h 1.2 mph /  1.9 km/h 95 % 0.00 in /  0 mm
07:21 49.3 °F /  9.6 °C 47.9 °F /  8.8 °C 30.08 in /  1018.5 hPa NW 2.3 mph /  3.7 km/h 2.3 mph /  3.7 km/h 95 % 0.00 in /  0 mm
07:26 49.3 °F /  9.6 °C 47.9 °F /  8.8 °C 30.08 in /  1018.5 hPa Calm     95 % 0.00 in /  0 mm
07:31 49.2 °F /  9.6 °C 47.8 °F /  8.8 °C 30.08 in /  1018.5 hPa NW 2.0 mph /  3.2 km/h 2.0 mph /  3.2 km/h 95 % 0.01 in /  0.25 mm
07:36 49.2 °F /  9.6 °C 47.8 °F /  8.8 °C 30.08 in /  1018.5 hPa NW 1.2 mph /  1.9 km/h 1.2 mph /  1.9 km/h 95 % 0.01 in /  0.25 mm
07:41 49.1 °F /  9.5 °C 47.7 °F /  8.7 °C 30.08 in /  1018.5 hPa Calm     95 % 0.01 in /  0.25 mm
07:46 49.1 °F /  9.5 °C 48.0 °F /  8.9 °C 30.09 in /  1018.8 hPa NW 1.2 mph /  1.9 km/h 1.2 mph /  1.9 km/h 96 % 0.01 in /  0.25 mm
07:51 49.1 °F /  9.5 °C 48.0 °F /  8.9 °C 30.09 in /  1018.8 hPa WNW 1.2 mph /  1.9 km/h 1.2 mph /  1.9 km/h 96 % 0.01 in /  0.25 mm
07:56 49.1 °F /  9.5 °C 48.0 °F /  8.9 °C 30.09 in /  1018.8 hPa NW 1.2 mph /  1.9 km/h 1.2 mph /  1.9 km/h 96 % 0.02 in /  0.51 mm
08:01 49.1 °F /  9.5 °C 48.0 °F /  8.9 °C 30.09 in /  1018.8 hPa NW 1.2 mph /  1.9 km/h 1.2 mph /  1.9 km/h 96 % 0.02 in /  0.51 mm
08:06 49.2 °F /  9.6 °C 48.1 °F /  8.9 °C 30.09 in /  1018.8 hPa NW 1.2 mph /  1.9 km/h 1.2 mph /  1.9 km/h 96 % 0.02 in /  0.51 mm
08:12 49.2 °F /  9.6 °C 48.1 °F /  8.9 °C 30.09 in /  1018.8 hPa WNW 2.0 mph /  3.2 km/h 2.0 mph /  3.2 km/h 96 % 0.02 in /  0.51 mm
08:16 49.1 °F /  9.5 °C 48.0 °F /  8.9 °C 30.09 in /  1018.8 hPa NW 2.3 mph /  3.7 km/h 2.3 mph /  3.7 km/h 96 % 0.02 in /  0.51 mm
08:22 49.2 °F /  9.6 °C 48.1 °F /  8.9 °C 30.09 in /  1018.8 hPa WNW 1.2 mph /  1.9 km/h 1.2 mph /  1.9 km/h 96 % 0.03 in /  0.76 mm
08:26 49.3 °F /  9.6 °C 48.2 °F /  9 °C 30.09 in /  1018.8 hPa Calm     96 % 0.03 in /  0.76 mm
08:31 49.4 °F /  9.7 °C 48.3 °F /  9.1 °C 30.09 in /  1018.8 hPa NW 1.2 mph /  1.9 km/h 1.2 mph /  1.9 km/h 96 % 0.02 in /  0.51 mm
08:36 49.4 °F /  9.7 °C 48.3 °F /  9.1 °C 30.09 in /  1018.8 hPa NNW 1.2 mph /  1.9 km/h 1.2 mph /  1.9 km/h 96 % 0.02 in /  0.51 mm
08:41 49.5 °F /  9.7 °C 48.4 °F /  9.1 °C 30.09 in /  1018.8 hPa Calm     96 % 0.02 in /  0.51 mm
08:47 49.6 °F /  9.8 °C 48.5 °F /  9.2 °C 30.09 in /  1018.8 hPa Calm     96 % 0.02 in /  0.51 mm
08:52 49.7 °F /  9.8 °C 48.6 °F /  9.2 °C 30.09 in /  1018.8 hPa NW 1.2 mph /  1.9 km/h 1.2 mph /  1.9 km/h 96 % 0.01 in /  0.25 mm
08:57 49.6 °F /  9.8 °C 48.5 °F /  9.2 °C 30.10 in /  1019.2 hPa North 2.3 mph /  3.7 km/h 2.3 mph /  3.7 km/h 96 % 0.01 in /  0.25 mm
09:02 49.8 °F /  9.9 °C 48.7 °F /  9.3 °C 30.10 in /  1019.2 hPa Calm     96 % 0.01 in /  0.25 mm
09:07 49.8 °F /  9.9 °C 48.7 °F /  9.3 °C 30.09 in /  1018.8 hPa West 1.2 mph /  1.9 km/h 1.2 mph /  1.9 km/h 96 % 0.01 in /  0.25 mm
09:12 49.9 °F /  9.9 °C 48.8 °F /  9.3 °C 30.09 in /  1018.8 hPa West 1.0 mph /  1.6 km/h   96 % 0.01 in /  0.25 mm
09:17 49.9 °F /  9.9 °C 48.8 °F /  9.3 °C 30.10 in /  1019.2 hPa Calm     96 % 0.01 in /  0.25 mm
09:22 50.0 °F /  10 °C 48.9 °F /  9.4 °C 30.10 in /  1019.2 hPa WNW 1.2 mph /  1.9 km/h 1.2 mph /  1.9 km/h 96 % 0.00 in /  0 mm
09:27 50.0 °F /  10 °C 48.9 °F /  9.4 °C 30.10 in /  1019.2 hPa WNW 2.3 mph /  3.7 km/h 2.3 mph /  3.7 km/h 96 % 0.00 in /  0 mm
09:32 50.0 °F /  10 °C 48.9 °F /  9.4 °C 30.11 in /  1019.5 hPa Calm     96 % 0.00 in /  0 mm
09:37 50.2 °F /  10.1 °C 49.1 °F /  9.5 °C 30.11 in /  1019.5 hPa NW 1.2 mph /  1.9 km/h 1.2 mph /  1.9 km/h 96 % 0.00 in /  0 mm
09:42 50.0 °F /  10 °C 48.6 °F /  9.2 °C 30.11 in /  1019.5 hPa NW 2.3 mph /  3.7 km/h 2.3 mph /  3.7 km/h 95 % 0.00 in /  0 mm
09:47 50.1 °F /  10.1 °C 48.7 °F /  9.3 °C 30.11 in /  1019.5 hPa NW 2.3 mph /  3.7 km/h 2.3 mph /  3.7 km/h 95 % 0.00 in /  0 mm
09:52 50.1 °F /  10.1 °C 48.7 °F /  9.3 °C 30.11 in /  1019.5 hPa NW 3.0 mph /  4.8 km/h 3.0 mph /  4.8 km/h 95 % 0.00 in /  0 mm
09:57 50.0 °F /  10 °C 48.6 °F /  9.2 °C 30.11 in /  1019.5 hPa NNW 2.3 mph /  3.7 km/h 2.3 mph /  3.7 km/h 95 % 0.01 in /  0.25 mm
10:02 49.9 °F /  9.9 °C 48.5 °F /  9.2 °C 30.11 in /  1019.5 hPa WNW 2.3 mph /  3.7 km/h 2.3 mph /  3.7 km/h 95 % 0.01 in /  0.25 mm
10:07 49.9 °F /  9.9 °C 48.5 °F /  9.2 °C 30.11 in /  1019.5 hPa NW 2.3 mph /  3.7 km/h 2.3 mph /  3.7 km/h 95 % 0.01 in /  0.25 mm
10:12 49.8 °F /  9.9 °C 48.4 °F /  9.1 °C 30.11 in /  1019.5 hPa NW 1.2 mph /  1.9 km/h 1.2 mph /  1.9 km/h 95 % 0.01 in /  0.25 mm
10:17 49.9 °F /  9.9 °C 48.5 °F /  9.2 °C 30.11 in /  1019.5 hPa NW 1.2 mph /  1.9 km/h 1.2 mph /  1.9 km/h 95 % 0.02 in /  0.51 mm
10:22 49.9 °F /  9.9 °C 48.5 °F /  9.2 °C 30.12 in /  1019.9 hPa NW 1.2 mph /  1.9 km/h 1.2 mph /  1.9 km/h 95 % 0.02 in /  0.51 mm
10:27 49.9 °F /  9.9 °C 48.5 °F /  9.2 °C 30.11 in /  1019.5 hPa WNW 2.3 mph /  3.7 km/h 2.3 mph /  3.7 km/h 95 % 0.02 in /  0.51 mm
10:32 50.0 °F /  10 °C 48.6 °F /  9.2 °C 30.11 in /  1019.5 hPa NW 2.3 mph /  3.7 km/h 2.3 mph /  3.7 km/h 95 % 0.02 in /  0.51 mm
10:37 50.1 °F /  10.1 °C 48.7 °F /  9.3 °C 30.11 in /  1019.5 hPa NW 1.2 mph /  1.9 km/h   95 % 0.02 in /  0.51 mm
10:42 50.1 °F /  10.1 °C 48.7 °F /  9.3 °C 30.11 in /  1019.5 hPa WNW 1.2 mph /  1.9 km/h 1.2 mph /  1.9 km/h 95 % 0.02 in /  0.51 mm
10:47 50.0 °F /  10 °C 48.6 °F /  9.2 °C 30.11 in /  1019.5 hPa NW 2.3 mph /  3.7 km/h 2.3 mph /  3.7 km/h 95 % 0.02 in /  0.51 mm
10:52 50.0 °F /  10 °C 48.3 °F /  9.1 °C 30.11 in /  1019.5 hPa NW 2.3 mph /  3.7 km/h 2.3 mph /  3.7 km/h 94 % 0.02 in /  0.51 mm
10:57 50.0 °F /  10 °C 48.3 °F /  9.1 °C 30.11 in /  1019.5 hPa NW 2.3 mph /  3.7 km/h 2.3 mph /  3.7 km/h 94 % 0.01 in /  0.25 mm
11:02 50.0 °F /  10 °C 48.3 °F /  9.1 °C 30.11 in /  1019.5 hPa NW 3.5 mph /  5.6 km/h 3.5 mph /  5.6 km/h 94 % 0.01 in /  0.25 mm
11:07 50.2 °F /  10.1 °C 48.5 °F /  9.2 °C 30.11 in /  1019.5 hPa NW 1.2 mph /  1.9 km/h 1.2 mph /  1.9 km/h 94 % 0.01 in /  0.25 mm
11:12 50.3 °F /  10.2 °C 48.6 °F /  9.2 °C 30.10 in /  1019.2 hPa NW 1.2 mph /  1.9 km/h   94 % 0.01 in /  0.25 mm
11:17 50.4 °F /  10.2 °C 48.5 °F /  9.2 °C 30.10 in /  1019.2 hPa NW 2.3 mph /  3.7 km/h 2.3 mph /  3.7 km/h 93 % 0.00 in /  0 mm
11:22 50.4 °F /  10.2 °C 48.5 °F /  9.2 °C 30.09 in /  1018.8 hPa WNW 1.2 mph /  1.9 km/h   93 % 0.00 in /  0 mm
11:27 50.6 °F /  10.3 °C 48.4 °F /  9.1 °C 30.09 in /  1018.8 hPa WNW 1.2 mph /  1.9 km/h 1.2 mph /  1.9 km/h 92 % 0.00 in /  0 mm
11:32 50.8 °F /  10.4 °C 48.6 °F /  9.2 °C 30.09 in /  1018.8 hPa NW 2.0 mph /  3.2 km/h 2.0 mph /  3.2 km/h 92 % 0.00 in /  0 mm
11:38 50.9 °F /  10.5 °C 48.7 °F /  9.3 °C 30.09 in /  1018.8 hPa NW 2.3 mph /  3.7 km/h 2.3 mph /  3.7 km/h 92 % 0.00 in /  0 mm
11:43 50.9 °F /  10.5 °C 48.4 °F /  9.1 °C 30.09 in /  1018.8 hPa NW 2.3 mph /  3.7 km/h 2.3 mph /  3.7 km/h 91 % 0.00 in /  0 mm
11:48 51.0 °F /  10.6 °C 48.5 °F /  9.2 °C 30.08 in /  1018.5 hPa WNW 3.5 mph /  5.6 km/h 3.5 mph /  5.6 km/h 91 % 0.00 in /  0 mm
11:53 51.0 °F /  10.6 °C 48.2 °F /  9 °C 30.08 in /  1018.5 hPa NW 2.3 mph /  3.7 km/h 2.3 mph /  3.7 km/h 90 % 0.00 in /  0 mm
11:58 51.1 °F /  10.6 °C 48.3 °F /  9.1 °C 30.08 in /  1018.5 hPa NW 3.5 mph /  5.6 km/h 3.5 mph /  5.6 km/h 90 % 0.00 in /  0 mm
12:03 51.1 °F /  10.6 °C 48.0 °F /  8.9 °C 30.08 in /  1018.5 hPa NW 1.2 mph /  1.9 km/h 1.2 mph /  1.9 km/h 89 % 0.00 in /  0 mm
12:08 51.3 °F /  10.7 °C 48.2 °F /  9 °C 30.08 in /  1018.5 hPa WNW 3.5 mph /  5.6 km/h 3.5 mph /  5.6 km/h 89 % 0.00 in /  0 mm
12:13 51.3 °F /  10.7 °C 48.2 °F /  9 °C 30.08 in /  1018.5 hPa NW 3.5 mph /  5.6 km/h 3.5 mph /  5.6 km/h 89 % 0.00 in /  0 mm
12:18 51.2 °F /  10.7 °C 47.8 °F /  8.8 °C 30.07 in /  1018.2 hPa WNW 3.5 mph /  5.6 km/h 3.5 mph /  5.6 km/h 88 % 0.00 in /  0 mm
12:23 51.3 °F /  10.7 °C 47.9 °F /  8.8 °C 30.07 in /  1018.2 hPa NW 4.0 mph /  6.4 km/h 4.0 mph /  6.4 km/h 88 % 0.00 in /  0 mm
12:28 51.3 °F /  10.7 °C 47.9 °F /  8.8 °C 30.07 in /  1018.2 hPa NW 5.8 mph /  9.3 km/h 5.8 mph /  9.3 km/h 88 % 0.00 in /  0 mm
12:33 51.3 °F /  10.7 °C 47.9 °F /  8.8 °C 30.07 in /  1018.2 hPa NW 5.8 mph /  9.3 km/h 5.8 mph /  9.3 km/h 88 % 0.00 in /  0 mm
12:38 51.4 °F /  10.8 °C 48.0 °F /  8.9 °C 30.06 in /  1017.8 hPa NW 3.5 mph /  5.6 km/h 3.5 mph /  5.6 km/h 88 % 0.00 in /  0 mm
12:43 51.6 °F /  10.9 °C 48.2 °F /  9 °C 30.06 in /  1017.8 hPa NW 3.5 mph /  5.6 km/h 3.5 mph /  5.6 km/h 88 % 0.00 in /  0 mm
12:48 51.6 °F /  10.9 °C 47.9 °F /  8.8 °C 30.06 in /  1017.8 hPa WNW 3.5 mph /  5.6 km/h 3.5 mph /  5.6 km/h 87 % 0.00 in /  0 mm
12:53 51.7 °F /  10.9 °C 48.3 °F /  9.1 °C 30.06 in /  1017.8 hPa WNW 3.5 mph /  5.6 km/h 3.5 mph /  5.6 km/h 88 % 0.00 in /  0 mm
12:58 51.7 °F /  10.9 °C 48.0 °F /  8.9 °C 30.05 in /  1017.5 hPa WNW 5.0 mph /  8 km/h 5.0 mph /  8 km/h 87 % 0.00 in /  0 mm
13:03 51.7 °F /  10.9 °C 48.0 °F /  8.9 °C 30.05 in /  1017.5 hPa WNW 3.5 mph /  5.6 km/h 3.5 mph /  5.6 km/h 87 % 0.00 in /  0 mm
13:08 51.8 °F /  11 °C 48.4 °F /  9.1 °C 30.05 in /  1017.5 hPa NW 3.5 mph /  5.6 km/h 3.5 mph /  5.6 km/h 88 % 0.00 in /  0 mm
13:13 51.7 °F /  10.9 °C 47.6 °F /  8.7 °C 30.05 in /  1017.5 hPa NW 3.5 mph /  5.6 km/h 3.5 mph /  5.6 km/h 86 % 0.00 in /  0 mm
13:18 51.6 °F /  10.9 °C 47.5 °F /  8.6 °C 30.04 in /  1017.2 hPa WNW 5.8 mph /  9.3 km/h 5.8 mph /  9.3 km/h 86 % 0.00 in /  0 mm
13:23 51.7 °F /  10.9 °C 48.0 °F /  8.9 °C 30.04 in /  1017.2 hPa WNW 3.5 mph /  5.6 km/h 3.5 mph /  5.6 km/h 87 % 0.00 in /  0 mm
13:28 51.7 °F /  10.9 °C 47.6 °F /  8.7 °C 30.04 in /  1017.2 hPa NW 4.0 mph /  6.4 km/h 4.0 mph /  6.4 km/h 86 % 0.00 in /  0 mm
13:33 51.7 °F /  10.9 °C 47.6 °F /  8.7 °C 30.04 in /  1017.2 hPa NW 6.9 mph /  11.1 km/h 6.9 mph /  11.1 km/h 86 % 0.00 in /  0 mm
13:38 51.9 °F /  11.1 °C 48.2 °F /  9 °C 30.04 in /  1017.2 hPa NW 3.5 mph /  5.6 km/h 3.5 mph /  5.6 km/h 87 % 0.00 in /  0 mm
13:43 52.0 °F /  11.1 °C 47.9 °F /  8.8 °C 30.04 in /  1017.2 hPa WNW 2.3 mph /  3.7 km/h 2.3 mph /  3.7 km/h 86 % 0.00 in /  0 mm
13:48 52.0 °F /  11.1 °C 47.9 °F /  8.8 °C 30.04 in /  1017.2 hPa WNW 4.6 mph /  7.4 km/h 4.6 mph /  7.4 km/h 86 % 0.00 in /  0 mm
13:53 52.1 °F /  11.2 °C 47.7 °F /  8.7 °C 30.04 in /  1017.2 hPa NNW 3.5 mph /  5.6 km/h 3.5 mph /  5.6 km/h 85 % 0.00 in /  0 mm
13:58 52.2 °F /  11.2 °C 47.8 °F /  8.8 °C 30.04 in /  1017.2 hPa NW 5.8 mph /  9.3 km/h 5.8 mph /  9.3 km/h 85 % 0.00 in /  0 mm
14:03 52.2 °F /  11.2 °C 47.8 °F /  8.8 °C 30.04 in /  1017.2 hPa NW 3.5 mph /  5.6 km/h 3.5 mph /  5.6 km/h 85 % 0.00 in /  0 mm
14:08 52.3 °F /  11.3 °C 47.9 °F /  8.8 °C 30.04 in /  1017.2 hPa NW 2.3 mph /  3.7 km/h 2.3 mph /  3.7 km/h 85 % 0.00 in /  0 mm
14:13 52.4 °F /  11.3 °C 48.0 °F /  8.9 °C 30.03 in /  1016.8 hPa NW 3.5 mph /  5.6 km/h 3.5 mph /  5.6 km/h 85 % 0.00 in /  0 mm
14:18 52.5 °F /  11.4 °C 48.1 °F /  8.9 °C 30.03 in /  1016.8 hPa West 3.5 mph /  5.6 km/h 3.5 mph /  5.6 km/h 85 % 0.00 in /  0 mm
14:23 52.7 °F /  11.5 °C 48.0 °F /  8.9 °C 30.03 in /  1016.8 hPa NNW 1.2 mph /  1.9 km/h 1.3 mph /  2.1 km/h 84 % 0.00 in /  0 mm
14:28 52.8 °F /  11.6 °C 47.8 °F /  8.8 °C 30.03 in /  1016.8 hPa NNW 2.3 mph /  3.7 km/h 2.3 mph /  3.7 km/h 83 % 0.00 in /  0 mm
14:33 53.0 °F /  11.7 °C 48.0 °F /  8.9 °C 30.03 in /  1016.8 hPa NW 2.3 mph /  3.7 km/h 2.3 mph /  3.7 km/h 83 % 0.00 in /  0 mm
14:38 53.1 °F /  11.7 °C 48.1 °F /  8.9 °C 30.03 in /  1016.8 hPa NW 3.5 mph /  5.6 km/h 3.5 mph /  5.6 km/h 83 % 0.00 in /  0 mm
14:43 53.1 °F /  11.7 °C 47.7 °F /  8.7 °C 30.03 in /  1016.8 hPa NNW 2.3 mph /  3.7 km/h 2.3 mph /  3.7 km/h 82 % 0.00 in /  0 mm
14:48 53.0 °F /  11.7 °C 47.3 °F /  8.5 °C 30.03 in /  1016.8 hPa NNW 4.6 mph /  7.4 km/h 4.6 mph /  7.4 km/h 81 % 0.00 in /  0 mm
14:53 53.0 °F /  11.7 °C 47.3 °F /  8.5 °C 30.03 in /  1016.8 hPa NNW 2.3 mph /  3.7 km/h 2.3 mph /  3.7 km/h 81 % 0.00 in /  0 mm
14:58 53.0 °F /  11.7 °C 47.0 °F /  8.3 °C 30.03 in /  1016.8 hPa WNW 3.5 mph /  5.6 km/h 3.5 mph /  5.6 km/h 80 % 0.00 in /  0 mm
15:03 53.0 °F /  11.7 °C 47.3 °F /  8.5 °C 30.03 in /  1016.8 hPa NW 2.0 mph /  3.2 km/h 2.0 mph /  3.2 km/h 81 % 0.00 in /  0 mm
15:08 53.0 °F /  11.7 °C 47.0 °F /  8.3 °C 30.03 in /  1016.8 hPa WNW 3.5 mph /  5.6 km/h 3.5 mph /  5.6 km/h 80 % 0.00 in /  0 mm
15:13 53.0 °F /  11.7 °C 47.7 °F /  8.7 °C 30.03 in /  1016.8 hPa WNW 1.2 mph /  1.9 km/h 1.2 mph /  1.9 km/h 82 % 0.00 in /  0 mm
15:18 53.0 °F /  11.7 °C 47.7 °F /  8.7 °C 30.03 in /  1016.8 hPa West 1.2 mph /  1.9 km/h 1.2 mph /  1.9 km/h 82 % 0.00 in /  0 mm
15:23 53.0 °F /  11.7 °C 47.3 °F /  8.5 °C 30.03 in /  1016.8 hPa NW 3.5 mph /  5.6 km/h 3.5 mph /  5.6 km/h 81 % 0.00 in /  0 mm
15:28 52.9 °F /  11.6 °C 47.2 °F /  8.4 °C 30.03 in /  1016.8 hPa NW 1.2 mph /  1.9 km/h 1.2 mph /  1.9 km/h 81 % 0.00 in /  0 mm
15:33 52.8 °F /  11.6 °C 47.1 °F /  8.4 °C 30.02 in /  1016.5 hPa WNW 2.3 mph /  3.7 km/h 2.3 mph /  3.7 km/h 81 % 0.00 in /  0 mm
15:38 52.8 °F /  11.6 °C 47.1 °F /  8.4 °C 30.02 in /  1016.5 hPa WNW 2.3 mph /  3.7 km/h   81 % 0.00 in /  0 mm
15:43 52.7 °F /  11.5 °C 47.0 °F /  8.3 °C 30.02 in /  1016.5 hPa NW 2.0 mph /  3.2 km/h 2.0 mph /  3.2 km/h 81 % 0.00 in /  0 mm
15:48 52.7 °F /  11.5 °C 47.0 °F /  8.3 °C 30.03 in /  1016.8 hPa NW 4.0 mph /  6.4 km/h 4.0 mph /  6.4 km/h 81 % 0.00 in /  0 mm
15:53 52.6 °F /  11.4 °C 46.9 °F /  8.3 °C 30.02 in /  1016.5 hPa NW 2.0 mph /  3.2 km/h 2.0 mph /  3.2 km/h 81 % 0.00 in /  0 mm
15:58 52.6 °F /  11.4 °C 46.9 °F /  8.3 °C 30.02 in /  1016.5 hPa WNW 1.2 mph /  1.9 km/h 1.2 mph /  1.9 km/h 81 % 0.00 in /  0 mm
16:03 52.5 °F /  11.4 °C 46.8 °F /  8.2 °C 30.02 in /  1016.5 hPa WNW 2.3 mph /  3.7 km/h 2.3 mph /  3.7 km/h 81 % 0.00 in /  0 mm
16:08 52.4 °F /  11.3 °C 46.4 °F /  8 °C 30.02 in /  1016.5 hPa West 2.3 mph /  3.7 km/h 2.3 mph /  3.7 km/h 80 % 0.00 in /  0 mm
16:13 52.4 °F /  11.3 °C 46.4 °F /  8 °C 30.02 in /  1016.5 hPa NW 1.2 mph /  1.9 km/h 1.2 mph /  1.9 km/h 80 % 0.00 in /  0 mm
16:18 52.3 °F /  11.3 °C 46.3 °F /  7.9 °C 30.02 in /  1016.5 hPa NW 1.2 mph /  1.9 km/h   80 % 0.00 in /  0 mm
16:23 52.2 °F /  11.2 °C 46.2 °F /  7.9 °C 30.02 in /  1016.5 hPa NW 1.2 mph /  1.9 km/h 1.2 mph /  1.9 km/h 80 % 0.00 in /  0 mm
16:28 52.1 °F /  11.2 °C 46.4 °F /  8 °C 30.01 in /  1016.1 hPa Calm     81 % 0.00 in /  0 mm
16:33 52.0 °F /  11.1 °C 46.3 °F /  7.9 °C 30.02 in /  1016.5 hPa Calm     81 % 0.00 in /  0 mm
16:38 51.9 °F /  11.1 °C 46.3 °F /  7.9 °C 30.01 in /  1016.1 hPa Calm     81 % 0.00 in /  0 mm
16:43 51.8 °F /  11 °C 46.2 °F /  7.9 °C 30.01 in /  1016.1 hPa Calm     81 % 0.00 in /  0 mm
16:48 51.7 °F /  10.9 °C 46.4 °F /  8 °C 30.01 in /  1016.1 hPa Calm     82 % 0.00 in /  0 mm
16:53 51.6 °F /  10.9 °C 46.0 °F /  7.8 °C 30.01 in /  1016.1 hPa Calm     81 % 0.00 in /  0 mm
16:58 51.5 °F /  10.8 °C 46.2 °F /  7.9 °C 30.01 in /  1016.1 hPa Calm     82 % 0.00 in /  0 mm
17:03 51.5 °F /  10.8 °C 46.2 °F /  7.9 °C 30.01 in /  1016.1 hPa Calm     82 % 0.00 in /  0 mm
17:08 51.4 °F /  10.8 °C 46.1 °F /  7.8 °C 30.01 in /  1016.1 hPa Calm     82 % 0.00 in /  0 mm
17:13 51.4 °F /  10.8 °C 46.4 °F /  8 °C 30.01 in /  1016.1 hPa Calm     83 % 0.00 in /  0 mm
17:18 51.3 °F /  10.7 °C 46.6 °F /  8.1 °C 30.01 in /  1016.1 hPa Calm     84 % 0.00 in /  0 mm
17:23 51.2 °F /  10.7 °C 46.5 °F /  8.1 °C 30.01 in /  1016.1 hPa Calm     84 % 0.00 in /  0 mm
17:28 51.0 °F /  10.6 °C 46.6 °F /  8.1 °C 30.02 in /  1016.5 hPa Calm     85 % 0.00 in /  0 mm
17:33 50.9 °F /  10.5 °C 46.6 °F /  8.1 °C 30.01 in /  1016.1 hPa Calm     85 % 0.00 in /  0 mm
17:38 50.9 °F /  10.5 °C 46.9 °F /  8.3 °C 30.01 in /  1016.1 hPa Calm     86 % 0.00 in /  0 mm
17:43 50.8 °F /  10.4 °C 47.1 °F /  8.4 °C 30.01 in /  1016.1 hPa Calm     87 % 0.00 in /  0 mm
17:48 50.7 °F /  10.4 °C 47.0 °F /  8.3 °C 30.02 in /  1016.5 hPa Calm     87 % 0.00 in /  0 mm
17:53 50.6 °F /  10.3 °C 46.9 °F /  8.3 °C 30.02 in /  1016.5 hPa Calm     87 % 0.00 in /  0 mm
17:58 50.5 °F /  10.3 °C 47.1 °F /  8.4 °C 30.02 in /  1016.5 hPa Calm     88 % 0.00 in /  0 mm
18:03 50.3 °F /  10.2 °C 46.9 °F /  8.3 °C 30.02 in /  1016.5 hPa Calm     88 % 0.00 in /  0 mm
18:08 50.1 °F /  10.1 °C 47.0 °F /  8.3 °C 30.02 in /  1016.5 hPa Calm     89 % 0.00 in /  0 mm
18:13 49.9 °F /  9.9 °C 46.8 °F /  8.2 °C 30.02 in /  1016.5 hPa Calm     89 % 0.00 in /  0 mm
18:18 49.8 °F /  9.9 °C 46.7 °F /  8.2 °C 30.02 in /  1016.5 hPa Calm     89 % 0.00 in /  0 mm
18:23 49.6 °F /  9.8 °C 46.8 °F /  8.2 °C 30.02 in /  1016.5 hPa Calm     90 % 0.00 in /  0 mm
18:28 49.4 °F /  9.7 °C 46.6 °F /  8.1 °C 30.02 in /  1016.5 hPa Calm     90 % 0.00 in /  0 mm
18:33 49.1 °F /  9.5 °C 46.3 °F /  7.9 °C 30.02 in /  1016.5 hPa Calm     90 % 0.00 in /  0 mm
18:38 48.9 °F /  9.4 °C 46.1 °F /  7.8 °C 30.02 in /  1016.5 hPa Calm     90 % 0.00 in /  0 mm
18:43 48.8 °F /  9.3 °C 46.0 °F /  7.8 °C 30.02 in /  1016.5 hPa Calm     90 % 0.00 in /  0 mm
18:48 48.5 °F /  9.2 °C 45.7 °F /  7.6 °C 30.02 in /  1016.5 hPa Calm     90 % 0.00 in /  0 mm
18:53 48.2 °F /  9 °C 45.7 °F /  7.6 °C 30.02 in /  1016.5 hPa Calm     91 % 0.00 in /  0 mm
18:58 47.9 °F /  8.8 °C 45.4 °F /  7.4 °C 30.02 in /  1016.5 hPa Calm     91 % 0.00 in /  0 mm
19:03 47.6 °F /  8.7 °C 45.1 °F /  7.3 °C 30.02 in /  1016.5 hPa Calm     91 % 0.00 in /  0 mm
19:08 47.3 °F /  8.5 °C 44.8 °F /  7.1 °C 30.02 in /  1016.5 hPa Calm     91 % 0.00 in /  0 mm
19:13 47.1 °F /  8.4 °C 44.9 °F /  7.2 °C 30.02 in /  1016.5 hPa Calm     92 % 0.00 in /  0 mm
19:19 46.8 °F /  8.2 °C 44.6 °F /  7 °C 30.02 in /  1016.5 hPa Calm     92 % 0.00 in /  0 mm
19:24 46.6 °F /  8.1 °C 44.4 °F /  6.9 °C 30.02 in /  1016.5 hPa Calm     92 % 0.00 in /  0 mm
19:29 46.5 °F /  8.1 °C 44.3 °F /  6.8 °C 30.02 in /  1016.5 hPa Calm     92 % 0.00 in /  0 mm
19:34 46.4 °F /  8 °C 44.2 °F /  6.8 °C 30.02 in /  1016.5 hPa Calm     92 % 0.00 in /  0 mm
19:39 46.1 °F /  7.8 °C 43.9 °F /  6.6 °C 30.02 in /  1016.5 hPa Calm     92 % 0.00 in /  0 mm
19:44 45.9 °F /  7.7 °C 43.7 °F /  6.5 °C 30.02 in /  1016.5 hPa Calm     92 % 0.00 in /  0 mm
19:49 45.7 °F /  7.6 °C 43.5 °F /  6.4 °C 30.02 in /  1016.5 hPa Calm     92 % 0.00 in /  0 mm
19:54 45.3 °F /  7.4 °C 43.4 °F /  6.3 °C 30.02 in /  1016.5 hPa Calm     93 % 0.00 in /  0 mm
19:59 45.1 °F /  7.3 °C 43.2 °F /  6.2 °C 30.03 in /  1016.8 hPa Calm     93 % 0.00 in /  0 mm
20:04 44.9 °F /  7.2 °C 43.0 °F /  6.1 °C 30.03 in /  1016.8 hPa Calm     93 % 0.00 in /  0 mm
20:09 44.9 °F /  7.2 °C 43.0 °F /  6.1 °C 30.03 in /  1016.8 hPa Calm     93 % 0.00 in /  0 mm
20:14 44.8 °F /  7.1 °C 42.9 °F /  6.1 °C 30.03 in /  1016.8 hPa Calm     93 % 0.00 in /  0 mm
20:19 44.6 °F /  7 °C 42.7 °F /  5.9 °C 30.03 in /  1016.8 hPa Calm     93 % 0.00 in /  0 mm
20:24 44.5 °F /  6.9 °C 42.6 °F /  5.9 °C 30.04 in /  1017.2 hPa Calm     93 % 0.00 in /  0 mm
20:29 44.4 °F /  6.9 °C 42.8 °F /  6 °C 30.04 in /  1017.2 hPa Calm   0.1 mph /  0.2 km/h 94 % 0.00 in /  0 mm
20:34 44.3 °F /  6.8 °C 42.7 °F /  5.9 °C 30.04 in /  1017.2 hPa Calm     94 % 0.00 in /  0 mm
20:39 44.3 °F /  6.8 °C 42.7 °F /  5.9 °C 30.04 in /  1017.2 hPa Calm     94 % 0.00 in /  0 mm
20:44 44.2 °F /  6.8 °C 42.6 °F /  5.9 °C 30.04 in /  1017.2 hPa Calm     94 % 0.00 in /  0 mm
20:49 44.1 °F /  6.7 °C 42.5 °F /  5.8 °C 30.04 in /  1017.2 hPa Calm     94 % 0.00 in /  0 mm
20:54 44.1 °F /  6.7 °C 42.5 °F /  5.8 °C 30.04 in /  1017.2 hPa SE 1.2 mph /  1.9 km/h   94 % 0.00 in /  0 mm
20:59 44.4 °F /  6.9 °C 42.8 °F /  6 °C 30.04 in /  1017.2 hPa SE 1.2 mph /  1.9 km/h   94 % 0.00 in /  0 mm
21:04 44.5 °F /  6.9 °C 42.9 °F /  6.1 °C 30.05 in /  1017.5 hPa ESE 1.2 mph /  1.9 km/h   94 % 0.00 in /  0 mm
21:09 44.5 °F /  6.9 °C 42.9 °F /  6.1 °C 30.05 in /  1017.5 hPa Calm     94 % 0.00 in /  0 mm
21:14 44.5 °F /  6.9 °C 42.9 °F /  6.1 °C 30.05 in /  1017.5 hPa Calm     94 % 0.00 in /  0 mm
21:19 44.4 °F /  6.9 °C 42.8 °F /  6 °C 30.05 in /  1017.5 hPa SSE 1.2 mph /  1.9 km/h   94 % 0.00 in /  0 mm
21:24 44.3 °F /  6.8 °C 42.7 °F /  5.9 °C 30.05 in /  1017.5 hPa Calm     94 % 0.00 in /  0 mm
21:25 44.3 °F /  6.8 °C 42.7 °F /  5.9 °C 30.05 in /  1017.5 hPa Calm     94 % 0.00 in /  0 mm
21:30 44.3 °F /  6.8 °C 42.7 °F /  5.9 °C 30.05 in /  1017.5 hPa Calm     94 % 0.00 in /  0 mm
21:35 44.2 °F /  6.8 °C 42.6 °F /  5.9 °C 30.05 in /  1017.5 hPa Calm     94 % 0.00 in /  0 mm
21:40 44.2 °F /  6.8 °C 42.6 °F /  5.9 °C 30.05 in /  1017.5 hPa Calm     94 % 0.00 in /  0 mm
21:45 44.0 °F /  6.7 °C 42.4 °F /  5.8 °C 30.05 in /  1017.5 hPa Calm     94 % 0.00 in /  0 mm
21:50 43.9 °F /  6.6 °C 42.3 °F /  5.7 °C 30.05 in /  1017.5 hPa Calm     94 % 0.00 in /  0 mm
21:55 43.7 °F /  6.5 °C 42.1 °F /  5.6 °C 30.06 in /  1017.8 hPa Calm     94 % 0.00 in /  0 mm
22:00 43.4 °F /  6.3 °C 41.8 °F /  5.4 °C 30.06 in /  1017.8 hPa Calm     94 % 0.00 in /  0 mm
22:05 43.3 °F /  6.3 °C 41.7 °F /  5.4 °C 30.06 in /  1017.8 hPa Calm     94 % 0.00 in /  0 mm
22:10 43.1 °F /  6.2 °C 41.5 °F /  5.3 °C 30.06 in /  1017.8 hPa Calm     94 % 0.00 in /  0 mm
22:15 42.9 °F /  6.1 °C 41.6 °F /  5.3 °C 30.06 in /  1017.8 hPa Calm     95 % 0.00 in /  0 mm
22:20 42.8 °F /  6 °C 41.5 °F /  5.3 °C 30.06 in /  1017.8 hPa Calm     95 % 0.00 in /  0 mm
22:25 42.5 °F /  5.8 °C 41.2 °F /  5.1 °C 30.06 in /  1017.8 hPa Calm     95 % 0.00 in /  0 mm
22:30 42.4 °F /  5.8 °C 41.1 °F /  5.1 °C 30.06 in /  1017.8 hPa West 1.2 mph /  1.9 km/h   95 % 0.00 in /  0 mm
22:35 42.4 °F /  5.8 °C 41.1 °F /  5.1 °C 30.06 in /  1017.8 hPa Calm     95 % 0.00 in /  0 mm
22:40 42.2 °F /  5.7 °C 40.9 °F /  4.9 °C 30.06 in /  1017.8 hPa Calm     95 % 0.00 in /  0 mm
22:45 41.9 °F /  5.5 °C 40.6 °F /  4.8 °C 30.06 in /  1017.8 hPa Calm     95 % 0.00 in /  0 mm
22:50 41.9 °F /  5.5 °C 40.6 °F /  4.8 °C 30.06 in /  1017.8 hPa Calm     95 % 0.00 in /  0 mm
22:55 41.8 °F /  5.4 °C 40.5 °F /  4.7 °C 30.06 in /  1017.8 hPa Calm     95 % 0.00 in /  0 mm
23:00 41.6 °F /  5.3 °C 40.3 °F /  4.6 °C 30.07 in /  1018.2 hPa Calm     95 % 0.00 in /  0 mm
23:05 41.6 °F /  5.3 °C 40.3 °F /  4.6 °C 30.06 in /  1017.8 hPa Calm     95 % 0.00 in /  0 mm
23:10 41.6 °F /  5.3 °C 40.3 °F /  4.6 °C 30.06 in /  1017.8 hPa Calm     95 % 0.00 in /  0 mm
23:15 41.5 °F /  5.3 °C 40.2 °F /  4.6 °C 30.06 in /  1017.8 hPa Calm     95 % 0.00 in /  0 mm
23:20 41.5 °F /  5.3 °C 40.2 °F /  4.6 °C 30.06 in /  1017.8 hPa Calm     95 % 0.00 in /  0 mm
23:25 41.3 °F /  5.2 °C 40.0 °F /  4.4 °C 30.06 in /  1017.8 hPa Calm     95 % 0.00 in /  0 mm
23:30 41.2 °F /  5.1 °C 39.9 °F /  4.4 °C 30.06 in /  1017.8 hPa Calm     95 % 0.00 in /  0 mm
23:35 41.0 °F /  5 °C 39.7 °F /  4.3 °C 30.06 in /  1017.8 hPa Calm     95 % 0.00 in /  0 mm
23:40 40.8 °F /  4.9 °C 39.5 °F /  4.2 °C 30.06 in /  1017.8 hPa Calm     95 % 0.00 in /  0 mm
23:45 40.8 °F /  4.9 °C 39.5 °F /  4.2 °C 30.06 in /  1017.8 hPa Calm     95 % 0.00 in /  0 mm
23:50 40.6 °F /  4.8 °C 39.3 °F /  4.1 °C 30.06 in /  1017.8 hPa Calm     95 % 0.00 in /  0 mm
Park Place, Exeter, Tulare County, California, USA
Compliments of Weather Underground - 2.75 mb